sensor_id;sensor_type;location;lat;lon;timestamp;P1;durP1;ratioP1;P2;durP2;ratioP2
51943;SDS011;37969;53.132;6.370;2023-03-13T00:00:34;42.58;;;8.18;;
51943;SDS011;37969;53.132;6.370;2023-03-13T00:03:00;40.42;;;8.15;;
51943;SDS011;37969;53.132;6.370;2023-03-13T00:05:26;49.75;;;7.50;;
51943;SDS011;37969;53.132;6.370;2023-03-13T00:07:52;41.88;;;8.02;;
51943;SDS011;37969;53.132;6.370;2023-03-13T00:10:18;44.92;;;8.07;;
51943;SDS011;37969;53.132;6.370;2023-03-13T00:12:44;52.45;;;8.63;;
51943;SDS011;37969;53.132;6.370;2023-03-13T00:15:10;40.42;;;7.78;;
51943;SDS011;37969;53.132;6.370;2023-03-13T00:17:37;47.15;;;8.45;;
51943;SDS011;37969;53.132;6.370;2023-03-13T00:20:03;46.80;;;8.30;;
51943;SDS011;37969;53.132;6.370;2023-03-13T00:22:29;43.20;;;8.00;;
51943;SDS011;37969;53.132;6.370;2023-03-13T00:24:55;45.97;;;8.13;;
51943;SDS011;37969;53.132;6.370;2023-03-13T00:27:23;46.15;;;7.78;;
51943;SDS011;37969;53.132;6.370;2023-03-13T00:29:49;55.97;;;10.63;;
51943;SDS011;37969;53.132;6.370;2023-03-13T00:32:15;51.45;;;8.40;;
51943;SDS011;37969;53.132;6.370;2023-03-13T00:34:41;51.00;;;9.07;;
51943;SDS011;37969;53.132;6.370;2023-03-13T00:37:07;58.40;;;9.88;;
51943;SDS011;37969;53.132;6.370;2023-03-13T00:39:33;66.28;;;10.27;;
51943;SDS011;37969;53.132;6.370;2023-03-13T00:41:59;56.33;;;10.27;;
51943;SDS011;37969;53.132;6.370;2023-03-13T00:44:28;58.65;;;10.77;;
51943;SDS011;37969;53.132;6.370;2023-03-13T00:46:54;45.47;;;8.80;;
51943;SDS011;37969;53.132;6.370;2023-03-13T00:49:20;46.50;;;9.15;;
51943;SDS011;37969;53.132;6.370;2023-03-13T00:51:46;48.63;;;8.65;;
51943;SDS011;37969;53.132;6.370;2023-03-13T00:54:13;51.08;;;10.32;;
51943;SDS011;37969;53.132;6.370;2023-03-13T00:56:39;48.45;;;8.15;;
51943;SDS011;37969;53.132;6.370;2023-03-13T00:59:05;45.83;;;9.00;;
51943;SDS011;37969;53.132;6.370;2023-03-13T01:01:32;55.08;;;9.68;;
51943;SDS011;37969;53.132;6.370;2023-03-13T01:04:00;47.30;;;9.82;;
51943;SDS011;37969;53.132;6.370;2023-03-13T01:06:27;53.38;;;9.55;;
51943;SDS011;37969;53.132;6.370;2023-03-13T01:08:54;49.97;;;8.63;;
51943;SDS011;37969;53.132;6.370;2023-03-13T01:11:21;47.85;;;9.55;;
51943;SDS011;37969;53.132;6.370;2023-03-13T01:13:48;48.08;;;9.30;;
51943;SDS011;37969;53.132;6.370;2023-03-13T01:16:16;49.13;;;9.85;;
51943;SDS011;37969;53.132;6.370;2023-03-13T01:18:44;55.67;;;9.65;;
51943;SDS011;37969;53.132;6.370;2023-03-13T01:21:11;52.58;;;9.05;;
51943;SDS011;37969;53.132;6.370;2023-03-13T01:23:37;45.65;;;9.85;;
51943;SDS011;37969;53.132;6.370;2023-03-13T01:26:04;49.65;;;10.02;;
51943;SDS011;37969;53.132;6.370;2023-03-13T01:28:30;46.50;;;9.57;;
51943;SDS011;37969;53.132;6.370;2023-03-13T01:30:57;47.22;;;9.13;;
51943;SDS011;37969;53.132;6.370;2023-03-13T01:33:23;48.75;;;9.00;;
51943;SDS011;37969;53.132;6.370;2023-03-13T01:35:50;53.63;;;10.15;;
51943;SDS011;37969;53.132;6.370;2023-03-13T01:38:16;45.38;;;8.40;;
51943;SDS011;37969;53.132;6.370;2023-03-13T01:40:44;54.25;;;9.55;;
51943;SDS011;37969;53.132;6.370;2023-03-13T01:43:19;47.95;;;8.73;;
51943;SDS011;37969;53.132;6.370;2023-03-13T01:45:52;48.17;;;9.73;;
51943;SDS011;37969;53.132;6.370;2023-03-13T01:48:19;44.03;;;8.13;;
51943;SDS011;37969;53.132;6.370;2023-03-13T01:50:47;53.33;;;10.18;;
51943;SDS011;37969;53.132;6.370;2023-03-13T01:53:13;41.13;;;8.15;;
51943;SDS011;37969;53.132;6.370;2023-03-13T01:55:39;44.85;;;8.70;;
51943;SDS011;37969;53.132;6.370;2023-03-13T01:58:05;43.08;;;8.98;;
51943;SDS011;37969;53.132;6.370;2023-03-13T02:00:32;40.67;;;9.30;;
51943;SDS011;37969;53.132;6.370;2023-03-13T02:03:00;40.83;;;8.43;;
51943;SDS011;37969;53.132;6.370;2023-03-13T02:05:29;54.58;;;9.25;;
51943;SDS011;37969;53.132;6.370;2023-03-13T02:07:57;54.95;;;10.15;;
51943;SDS011;37969;53.132;6.370;2023-03-13T02:10:24;48.15;;;9.55;;
51943;SDS011;37969;53.132;6.370;2023-03-13T02:12:51;53.72;;;10.60;;
51943;SDS011;37969;53.132;6.370;2023-03-13T02:15:18;48.03;;;10.38;;
51943;SDS011;37969;53.132;6.370;2023-03-13T02:17:45;46.28;;;9.88;;
51943;SDS011;37969;53.132;6.370;2023-03-13T02:20:13;43.08;;;9.68;;
51943;SDS011;37969;53.132;6.370;2023-03-13T02:22:45;48.85;;;9.98;;
51943;SDS011;37969;53.132;6.370;2023-03-13T02:25:26;47.78;;;9.90;;
51943;SDS011;37969;53.132;6.370;2023-03-13T02:27:56;37.60;;;9.60;;
51943;SDS011;37969;53.132;6.370;2023-03-13T02:30:23;42.33;;;9.57;;
51943;SDS011;37969;53.132;6.370;2023-03-13T02:32:49;35.92;;;8.98;;
51943;SDS011;37969;53.132;6.370;2023-03-13T02:35:17;33.22;;;9.40;;
51943;SDS011;37969;53.132;6.370;2023-03-13T02:37:45;37.42;;;8.75;;
51943;SDS011;37969;53.132;6.370;2023-03-13T02:40:13;39.67;;;9.70;;
51943;SDS011;37969;53.132;6.370;2023-03-13T02:42:41;38.45;;;9.38;;
51943;SDS011;37969;53.132;6.370;2023-03-13T02:45:08;31.88;;;9.25;;
51943;SDS011;37969;53.132;6.370;2023-03-13T02:47:35;30.58;;;8.57;;
51943;SDS011;37969;53.132;6.370;2023-03-13T02:50:02;28.88;;;8.63;;
51943;SDS011;37969;53.132;6.370;2023-03-13T02:52:29;22.90;;;6.68;;
51943;SDS011;37969;53.132;6.370;2023-03-13T02:54:57;28.08;;;7.88;;
51943;SDS011;37969;53.132;6.370;2023-03-13T02:57:25;27.88;;;7.50;;
51943;SDS011;37969;53.132;6.370;2023-03-13T02:59:51;28.67;;;8.38;;
51943;SDS011;37969;53.132;6.370;2023-03-13T03:02:17;26.63;;;7.80;;
51943;SDS011;37969;53.132;6.370;2023-03-13T03:04:43;23.80;;;7.15;;
51943;SDS011;37969;53.132;6.370;2023-03-13T03:07:09;18.67;;;7.18;;
51943;SDS011;37969;53.132;6.370;2023-03-13T03:09:36;16.02;;;7.05;;
51943;SDS011;37969;53.132;6.370;2023-03-13T03:12:02;20.55;;;7.55;;
51943;SDS011;37969;53.132;6.370;2023-03-13T03:14:28;15.15;;;6.82;;
51943;SDS011;37969;53.132;6.370;2023-03-13T03:16:54;23.50;;;6.63;;
51943;SDS011;37969;53.132;6.370;2023-03-13T03:19:20;14.68;;;6.68;;
51943;SDS011;37969;53.132;6.370;2023-03-13T03:21:47;16.85;;;6.63;;
51943;SDS011;37969;53.132;6.370;2023-03-13T03:24:13;17.77;;;6.47;;
51943;SDS011;37969;53.132;6.370;2023-03-13T03:26:40;16.33;;;7.07;;
51943;SDS011;37969;53.132;6.370;2023-03-13T03:29:06;14.57;;;7.00;;
51943;SDS011;37969;53.132;6.370;2023-03-13T03:31:32;11.90;;;6.88;;
51943;SDS011;37969;53.132;6.370;2023-03-13T03:33:58;12.50;;;6.82;;
51943;SDS011;37969;53.132;6.370;2023-03-13T03:36:25;13.80;;;7.30;;
51943;SDS011;37969;53.132;6.370;2023-03-13T03:38:52;18.50;;;8.00;;
51943;SDS011;37969;53.132;6.370;2023-03-13T03:41:18;19.90;;;7.63;;
51943;SDS011;37969;53.132;6.370;2023-03-13T03:43:44;14.40;;;7.47;;
51943;SDS011;37969;53.132;6.370;2023-03-13T03:46:11;12.93;;;6.53;;
51943;SDS011;37969;53.132;6.370;2023-03-13T03:48:37;15.55;;;7.32;;
51943;SDS011;37969;53.132;6.370;2023-03-13T03:51:04;16.00;;;7.32;;
51943;SDS011;37969;53.132;6.370;2023-03-13T03:53:30;11.57;;;6.88;;
51943;SDS011;37969;53.132;6.370;2023-03-13T03:55:56;11.45;;;7.13;;
51943;SDS011;37969;53.132;6.370;2023-03-13T03:58:23;9.07;;;5.97;;
51943;SDS011;37969;53.132;6.370;2023-03-13T04:00:49;13.63;;;7.80;;
51943;SDS011;37969;53.132;6.370;2023-03-13T04:03:15;11.70;;;7.72;;
51943;SDS011;37969;53.132;6.370;2023-03-13T04:05:42;12.98;;;7.50;;
51943;SDS011;37969;53.132;6.370;2023-03-13T04:08:08;11.32;;;7.50;;
51943;SDS011;37969;53.132;6.370;2023-03-13T04:10:35;9.75;;;7.43;;
51943;SDS011;37969;53.132;6.370;2023-03-13T04:13:01;9.75;;;7.50;;
51943;SDS011;37969;53.132;6.370;2023-03-13T04:15:27;8.57;;;6.65;;
51943;SDS011;37969;53.132;6.370;2023-03-13T04:17:53;10.23;;;8.13;;
51943;SDS011;37969;53.132;6.370;2023-03-13T04:20:20;13.02;;;8.30;;
51943;SDS011;37969;53.132;6.370;2023-03-13T04:22:46;12.18;;;10.00;;
51943;SDS011;37969;53.132;6.370;2023-03-13T04:25:12;16.52;;;9.73;;
51943;SDS011;37969;53.132;6.370;2023-03-13T04:27:38;18.13;;;10.68;;
51943;SDS011;37969;53.132;6.370;2023-03-13T04:30:05;14.52;;;10.88;;
51943;SDS011;37969;53.132;6.370;2023-03-13T04:32:31;17.40;;;11.68;;
51943;SDS011;37969;53.132;6.370;2023-03-13T04:34:57;16.58;;;11.57;;
51943;SDS011;37969;53.132;6.370;2023-03-13T04:37:23;17.83;;;10.32;;
51943;SDS011;37969;53.132;6.370;2023-03-13T04:39:50;17.77;;;11.00;;
51943;SDS011;37969;53.132;6.370;2023-03-13T04:42:16;16.33;;;13.30;;
51943;SDS011;37969;53.132;6.370;2023-03-13T04:44:42;23.02;;;12.48;;
51943;SDS011;37969;53.132;6.370;2023-03-13T04:47:08;23.70;;;14.40;;
51943;SDS011;37969;53.132;6.370;2023-03-13T04:49:34;25.15;;;15.30;;
51943;SDS011;37969;53.132;6.370;2023-03-13T04:52:00;20.75;;;14.63;;
51943;SDS011;37969;53.132;6.370;2023-03-13T04:54:27;23.52;;;13.77;;
51943;SDS011;37969;53.132;6.370;2023-03-13T04:56:53;22.58;;;13.95;;
51943;SDS011;37969;53.132;6.370;2023-03-13T04:59:19;14.35;;;8.18;;
51943;SDS011;37969;53.132;6.370;2023-03-13T05:01:45;14.88;;;10.77;;
51943;SDS011;37969;53.132;6.370;2023-03-13T05:04:11;18.27;;;10.00;;
51943;SDS011;37969;53.132;6.370;2023-03-13T05:06:37;20.08;;;9.85;;
51943;SDS011;37969;53.132;6.370;2023-03-13T05:09:04;22.15;;;11.48;;
51943;SDS011;37969;53.132;6.370;2023-03-13T05:11:30;18.67;;;10.52;;
51943;SDS011;37969;53.132;6.370;2023-03-13T05:13:56;16.90;;;8.25;;
51943;SDS011;37969;53.132;6.370;2023-03-13T05:16:22;16.15;;;7.05;;
51943;SDS011;37969;53.132;6.370;2023-03-13T05:18:48;20.48;;;7.75;;
51943;SDS011;37969;53.132;6.370;2023-03-13T05:21:14;18.73;;;8.50;;
51943;SDS011;37969;53.132;6.370;2023-03-13T05:23:41;15.60;;;7.57;;
51943;SDS011;37969;53.132;6.370;2023-03-13T05:26:07;16.55;;;6.85;;
51943;SDS011;37969;53.132;6.370;2023-03-13T05:28:33;17.40;;;6.80;;
51943;SDS011;37969;53.132;6.370;2023-03-13T05:30:59;11.10;;;6.72;;
51943;SDS011;37969;53.132;6.370;2023-03-13T05:33:25;10.65;;;5.20;;
51943;SDS011;37969;53.132;6.370;2023-03-13T05:35:51;9.45;;;4.97;;
51943;SDS011;37969;53.132;6.370;2023-03-13T05:38:17;15.38;;;6.43;;
51943;SDS011;37969;53.132;6.370;2023-03-13T05:40:44;16.00;;;5.43;;
51943;SDS011;37969;53.132;6.370;2023-03-13T05:43:10;13.18;;;4.72;;
51943;SDS011;37969;53.132;6.370;2023-03-13T05:45:36;9.75;;;4.53;;
51943;SDS011;37969;53.132;6.370;2023-03-13T05:48:02;12.05;;;4.75;;
51943;SDS011;37969;53.132;6.370;2023-03-13T05:50:28;10.93;;;4.82;;
51943;SDS011;37969;53.132;6.370;2023-03-13T05:52:54;12.65;;;4.75;;
51943;SDS011;37969;53.132;6.370;2023-03-13T05:55:21;19.10;;;5.75;;
51943;SDS011;37969;53.132;6.370;2023-03-13T05:57:47;19.88;;;4.80;;
51943;SDS011;37969;53.132;6.370;2023-03-13T06:00:14;17.05;;;4.60;;
51943;SDS011;37969;53.132;6.370;2023-03-13T06:02:41;21.10;;;5.32;;
51943;SDS011;37969;53.132;6.370;2023-03-13T06:05:08;16.00;;;6.05;;
51943;SDS011;37969;53.132;6.370;2023-03-13T06:07:34;17.75;;;5.93;;
51943;SDS011;37969;53.132;6.370;2023-03-13T06:10:00;20.70;;;5.97;;
51943;SDS011;37969;53.132;6.370;2023-03-13T06:12:26;21.30;;;6.25;;
51943;SDS011;37969;53.132;6.370;2023-03-13T06:14:53;24.17;;;6.90;;
51943;SDS011;37969;53.132;6.370;2023-03-13T06:17:19;19.90;;;5.75;;
51943;SDS011;37969;53.132;6.370;2023-03-13T06:19:45;16.35;;;5.78;;
51943;SDS011;37969;53.132;6.370;2023-03-13T06:22:12;12.88;;;5.90;;
51943;SDS011;37969;53.132;6.370;2023-03-13T06:24:38;13.85;;;5.45;;
51943;SDS011;37969;53.132;6.370;2023-03-13T06:27:05;13.77;;;7.00;;
51943;SDS011;37969;53.132;6.370;2023-03-13T06:29:32;17.00;;;5.93;;
51943;SDS011;37969;53.132;6.370;2023-03-13T06:31:58;16.95;;;6.90;;
51943;SDS011;37969;53.132;6.370;2023-03-13T06:34:24;16.98;;;6.30;;
51943;SDS011;37969;53.132;6.370;2023-03-13T06:36:50;22.38;;;8.32;;
51943;SDS011;37969;53.132;6.370;2023-03-13T06:39:16;22.63;;;7.85;;
51943;SDS011;37969;53.132;6.370;2023-03-13T06:41:42;13.30;;;6.15;;
51943;SDS011;37969;53.132;6.370;2023-03-13T06:44:08;18.88;;;7.72;;
51943;SDS011;37969;53.132;6.370;2023-03-13T06:46:35;24.67;;;6.75;;
51943;SDS011;37969;53.132;6.370;2023-03-13T06:49:01;18.60;;;6.90;;
51943;SDS011;37969;53.132;6.370;2023-03-13T06:51:29;16.08;;;5.75;;
51943;SDS011;37969;53.132;6.370;2023-03-13T06:53:56;15.45;;;6.20;;
51943;SDS011;37969;53.132;6.370;2023-03-13T06:56:22;21.83;;;6.53;;
51943;SDS011;37969;53.132;6.370;2023-03-13T06:58:48;14.63;;;5.88;;
51943;SDS011;37969;53.132;6.370;2023-03-13T07:01:15;15.93;;;5.97;;
51943;SDS011;37969;53.132;6.370;2023-03-13T07:03:41;12.00;;;5.00;;
51943;SDS011;37969;53.132;6.370;2023-03-13T07:06:08;16.13;;;4.90;;
51943;SDS011;37969;53.132;6.370;2023-03-13T07:08:35;19.73;;;4.75;;
51943;SDS011;37969;53.132;6.370;2023-03-13T07:11:02;23.45;;;5.53;;
51943;SDS011;37969;53.132;6.370;2023-03-13T07:13:29;19.30;;;5.82;;
51943;SDS011;37969;53.132;6.370;2023-03-13T07:15:58;17.60;;;6.22;;
51943;SDS011;37969;53.132;6.370;2023-03-13T07:18:25;15.05;;;4.75;;
51943;SDS011;37969;53.132;6.370;2023-03-13T07:20:52;15.38;;;6.10;;
51943;SDS011;37969;53.132;6.370;2023-03-13T07:23:19;12.50;;;4.40;;
51943;SDS011;37969;53.132;6.370;2023-03-13T07:25:52;19.20;;;5.57;;
51943;SDS011;37969;53.132;6.370;2023-03-13T07:28:19;23.20;;;5.97;;
51943;SDS011;37969;53.132;6.370;2023-03-13T07:30:45;19.80;;;5.75;;
51943;SDS011;37969;53.132;6.370;2023-03-13T07:33:11;19.55;;;5.88;;
51943;SDS011;37969;53.132;6.370;2023-03-13T07:35:38;9.85;;;4.05;;
51943;SDS011;37969;53.132;6.370;2023-03-13T07:38:04;18.38;;;5.50;;
51943;SDS011;37969;53.132;6.370;2023-03-13T07:40:30;16.92;;;5.18;;
51943;SDS011;37969;53.132;6.370;2023-03-13T07:42:56;9.80;;;3.95;;
51943;SDS011;37969;53.132;6.370;2023-03-13T07:45:22;13.80;;;4.85;;
51943;SDS011;37969;53.132;6.370;2023-03-13T07:47:49;18.10;;;4.63;;
51943;SDS011;37969;53.132;6.370;2023-03-13T07:50:15;10.02;;;4.18;;
51943;SDS011;37969;53.132;6.370;2023-03-13T07:52:41;14.00;;;4.57;;
51943;SDS011;37969;53.132;6.370;2023-03-13T07:55:07;12.57;;;4.13;;
51943;SDS011;37969;53.132;6.370;2023-03-13T07:57:33;10.90;;;4.18;;
51943;SDS011;37969;53.132;6.370;2023-03-13T07:59:59;15.65;;;4.18;;
51943;SDS011;37969;53.132;6.370;2023-03-13T08:02:26;10.05;;;3.58;;
51943;SDS011;37969;53.132;6.370;2023-03-13T08:04:52;11.27;;;3.55;;
51943;SDS011;37969;53.132;6.370;2023-03-13T08:07:18;15.23;;;4.15;;
51943;SDS011;37969;53.132;6.370;2023-03-13T08:09:44;17.27;;;4.43;;
51943;SDS011;37969;53.132;6.370;2023-03-13T08:12:10;14.55;;;3.20;;
51943;SDS011;37969;53.132;6.370;2023-03-13T08:14:36;9.48;;;3.20;;
51943;SDS011;37969;53.132;6.370;2023-03-13T08:17:02;10.52;;;3.13;;
51943;SDS011;37969;53.132;6.370;2023-03-13T08:19:29;9.82;;;2.97;;
51943;SDS011;37969;53.132;6.370;2023-03-13T08:21:55;5.65;;;2.80;;
51943;SDS011;37969;53.132;6.370;2023-03-13T08:24:21;14.65;;;3.33;;
51943;SDS011;37969;53.132;6.370;2023-03-13T08:26:47;10.98;;;3.83;;
51943;SDS011;37969;53.132;6.370;2023-03-13T08:29:13;5.72;;;2.42;;
51943;SDS011;37969;53.132;6.370;2023-03-13T08:31:44;8.98;;;2.65;;
51943;SDS011;37969;53.132;6.370;2023-03-13T08:34:12;8.82;;;2.20;;
51943;SDS011;37969;53.132;6.370;2023-03-13T08:36:39;7.70;;;2.30;;
51943;SDS011;37969;53.132;6.370;2023-03-13T08:39:08;9.48;;;2.53;;
51943;SDS011;37969;53.132;6.370;2023-03-13T08:44:03;9.02;;;2.03;;
51943;SDS011;37969;53.132;6.370;2023-03-13T08:46:30;8.50;;;2.08;;
51943;SDS011;37969;53.132;6.370;2023-03-13T08:48:57;11.20;;;3.08;;
51943;SDS011;37969;53.132;6.370;2023-03-13T08:51:24;6.85;;;1.88;;
51943;SDS011;37969;53.132;6.370;2023-03-13T08:53:51;4.53;;;2.00;;
51943;SDS011;37969;53.132;6.370;2023-03-13T08:56:18;4.57;;;2.13;;
51943;SDS011;37969;53.132;6.370;2023-03-13T08:58:51;6.30;;;1.67;;
51943;SDS011;37969;53.132;6.370;2023-03-13T09:01:19;10.60;;;2.10;;
51943;SDS011;37969;53.132;6.370;2023-03-13T09:03:45;6.00;;;1.85;;
51943;SDS011;37969;53.132;6.370;2023-03-13T09:06:11;3.80;;;1.40;;
51943;SDS011;37969;53.132;6.370;2023-03-13T09:08:38;8.80;;;1.95;;
51943;SDS011;37969;53.132;6.370;2023-03-13T09:11:06;7.18;;;1.92;;
51943;SDS011;37969;53.132;6.370;2023-03-13T09:13:34;8.90;;;2.40;;
51943;SDS011;37969;53.132;6.370;2023-03-13T09:16:02;8.32;;;2.15;;
51943;SDS011;37969;53.132;6.370;2023-03-13T09:18:28;10.10;;;3.00;;
51943;SDS011;37969;53.132;6.370;2023-03-13T09:20:55;11.90;;;2.47;;
51943;SDS011;37969;53.132;6.370;2023-03-13T09:23:21;14.40;;;2.40;;
51943;SDS011;37969;53.132;6.370;2023-03-13T09:25:48;14.07;;;2.80;;
51943;SDS011;37969;53.132;6.370;2023-03-13T09:28:14;12.73;;;2.97;;
51943;SDS011;37969;53.132;6.370;2023-03-13T09:30:40;13.63;;;3.25;;
51943;SDS011;37969;53.132;6.370;2023-03-13T09:33:06;13.20;;;3.63;;
51943;SDS011;37969;53.132;6.370;2023-03-13T09:35:33;15.20;;;2.90;;
51943;SDS011;37969;53.132;6.370;2023-03-13T09:37:59;9.70;;;2.50;;
51943;SDS011;37969;53.132;6.370;2023-03-13T09:40:25;7.57;;;2.72;;
51943;SDS011;37969;53.132;6.370;2023-03-13T09:42:52;12.23;;;3.13;;
51943;SDS011;37969;53.132;6.370;2023-03-13T09:45:26;14.98;;;3.65;;
51943;SDS011;37969;53.132;6.370;2023-03-13T09:47:58;13.30;;;2.92;;
51943;SDS011;37969;53.132;6.370;2023-03-13T09:50:28;15.05;;;3.22;;
51943;SDS011;37969;53.132;6.370;2023-03-13T09:52:58;12.77;;;3.05;;
51943;SDS011;37969;53.132;6.370;2023-03-13T09:55:29;10.57;;;2.58;;
51943;SDS011;37969;53.132;6.370;2023-03-13T10:00:27;12.30;;;2.80;;
51943;SDS011;37969;53.132;6.370;2023-03-13T10:02:56;17.85;;;4.00;;
51943;SDS011;37969;53.132;6.370;2023-03-13T10:05:24;18.95;;;3.75;;
51943;SDS011;37969;53.132;6.370;2023-03-13T10:07:55;16.58;;;3.33;;
51943;SDS011;37969;53.132;6.370;2023-03-13T10:10:26;20.92;;;3.33;;
51943;SDS011;37969;53.132;6.370;2023-03-13T10:15:40;16.77;;;3.17;;
51943;SDS011;37969;53.132;6.370;2023-03-13T10:18:13;18.48;;;3.92;;
51943;SDS011;37969;53.132;6.370;2023-03-13T10:20:41;18.38;;;3.90;;
51943;SDS011;37969;53.132;6.370;2023-03-13T10:23:12;17.92;;;3.90;;
51943;SDS011;37969;53.132;6.370;2023-03-13T10:25:39;22.58;;;4.25;;
51943;SDS011;37969;53.132;6.370;2023-03-13T10:28:13;19.27;;;4.30;;
51943;SDS011;37969;53.132;6.370;2023-03-13T10:30:42;8.68;;;2.67;;
51943;SDS011;37969;53.132;6.370;2023-03-13T10:35:37;16.63;;;3.42;;
51943;SDS011;37969;53.132;6.370;2023-03-13T10:38:07;19.77;;;4.20;;
51943;SDS011;37969;53.132;6.370;2023-03-13T10:40:34;18.27;;;3.63;;
51943;SDS011;37969;53.132;6.370;2023-03-13T10:43:03;21.13;;;4.15;;
51943;SDS011;37969;53.132;6.370;2023-03-13T10:45:31;23.17;;;4.43;;
51943;SDS011;37969;53.132;6.370;2023-03-13T10:48:02;14.60;;;3.78;;
51943;SDS011;37969;53.132;6.370;2023-03-13T10:50:31;24.48;;;4.72;;
51943;SDS011;37969;53.132;6.370;2023-03-13T10:52:58;22.50;;;4.80;;
51943;SDS011;37969;53.132;6.370;2023-03-13T10:55:32;21.65;;;4.65;;
51943;SDS011;37969;53.132;6.370;2023-03-13T10:58:00;19.00;;;4.03;;
51943;SDS011;37969;53.132;6.370;2023-03-13T11:00:39;25.63;;;4.60;;
51943;SDS011;37969;53.132;6.370;2023-03-13T11:03:14;18.05;;;4.35;;
51943;SDS011;37969;53.132;6.370;2023-03-13T11:05:42;18.23;;;2.97;;
51943;SDS011;37969;53.132;6.370;2023-03-13T11:08:11;19.88;;;3.65;;
51943;SDS011;37969;53.132;6.370;2023-03-13T11:10:55;18.50;;;3.30;;
51943;SDS011;37969;53.132;6.370;2023-03-13T11:13:29;19.65;;;3.45;;
51943;SDS011;37969;53.132;6.370;2023-03-13T11:15:57;19.13;;;3.33;;
51943;SDS011;37969;53.132;6.370;2023-03-13T11:18:27;17.40;;;3.40;;
51943;SDS011;37969;53.132;6.370;2023-03-13T11:20:56;15.25;;;3.28;;
51943;SDS011;37969;53.132;6.370;2023-03-13T11:23:27;17.65;;;3.25;;
51943;SDS011;37969;53.132;6.370;2023-03-13T11:30:59;23.77;;;3.25;;
51943;SDS011;37969;53.132;6.370;2023-03-13T11:33:32;11.82;;;2.97;;
51943;SDS011;37969;53.132;6.370;2023-03-13T11:36:02;11.73;;;2.45;;
51943;SDS011;37969;53.132;6.370;2023-03-13T11:45:54;9.23;;;2.17;;
51943;SDS011;37969;53.132;6.370;2023-03-13T11:48:38;14.93;;;2.90;;
51943;SDS011;37969;53.132;6.370;2023-03-13T11:51:15;18.08;;;3.65;;
51943;SDS011;37969;53.132;6.370;2023-03-13T11:56:14;15.30;;;2.50;;
51943;SDS011;37969;53.132;6.370;2023-03-13T11:58:46;18.85;;;3.05;;
51943;SDS011;37969;53.132;6.370;2023-03-13T12:01:17;9.35;;;1.95;;
51943;SDS011;37969;53.132;6.370;2023-03-13T12:03:53;11.38;;;2.78;;
51943;SDS011;37969;53.132;6.370;2023-03-13T12:06:28;17.25;;;2.97;;
51943;SDS011;37969;53.132;6.370;2023-03-13T12:08:57;13.77;;;3.20;;
51943;SDS011;37969;53.132;6.370;2023-03-13T12:11:26;16.63;;;3.28;;
51943;SDS011;37969;53.132;6.370;2023-03-13T12:13:58;15.48;;;3.78;;
51943;SDS011;37969;53.132;6.370;2023-03-13T12:16:33;14.40;;;3.20;;
51943;SDS011;37969;53.132;6.370;2023-03-13T12:19:02;15.45;;;3.42;;
51943;SDS011;37969;53.132;6.370;2023-03-13T12:21:33;24.30;;;3.65;;
51943;SDS011;37969;53.132;6.370;2023-03-13T12:24:03;18.40;;;3.85;;
51943;SDS011;37969;53.132;6.370;2023-03-13T12:29:14;24.40;;;4.35;;
51943;SDS011;37969;53.132;6.370;2023-03-13T12:31:42;16.60;;;3.15;;
51943;SDS011;37969;53.132;6.370;2023-03-13T12:34:14;17.30;;;3.53;;
51943;SDS011;37969;53.132;6.370;2023-03-13T12:36:45;18.58;;;3.63;;
51943;SDS011;37969;53.132;6.370;2023-03-13T12:41:41;18.65;;;3.08;;
51943;SDS011;37969;53.132;6.370;2023-03-13T12:44:09;18.63;;;3.37;;
51943;SDS011;37969;53.132;6.370;2023-03-13T12:46:43;20.42;;;4.53;;
51943;SDS011;37969;53.132;6.370;2023-03-13T12:54:14;16.70;;;3.55;;
51943;SDS011;37969;53.132;6.370;2023-03-13T12:56:53;23.30;;;4.63;;
51943;SDS011;37969;53.132;6.370;2023-03-13T12:59:27;24.40;;;4.57;;
51943;SDS011;37969;53.132;6.370;2023-03-13T13:01:55;22.00;;;5.05;;
51943;SDS011;37969;53.132;6.370;2023-03-13T13:04:23;20.48;;;3.95;;
51943;SDS011;37969;53.132;6.370;2023-03-13T13:09:30;23.48;;;5.07;;
51943;SDS011;37969;53.132;6.370;2023-03-13T13:12:17;20.40;;;4.38;;
51943;SDS011;37969;53.132;6.370;2023-03-13T13:24:52;23.77;;;4.78;;
51943;SDS011;37969;53.132;6.370;2023-03-13T13:27:26;23.63;;;5.70;;
51943;SDS011;37969;53.132;6.370;2023-03-13T13:29:54;25.95;;;4.43;;
51943;SDS011;37969;53.132;6.370;2023-03-13T13:35:04;20.58;;;3.80;;
51943;SDS011;37969;53.132;6.370;2023-03-13T13:37:31;22.60;;;4.88;;
51943;SDS011;37969;53.132;6.370;2023-03-13T13:40:31;18.92;;;3.83;;
51943;SDS011;37969;53.132;6.370;2023-03-13T13:42:50;18.85;;;4.70;;
51943;SDS011;37969;53.132;6.370;2023-03-13T13:47:45;24.02;;;4.63;;
51943;SDS011;37969;53.132;6.370;2023-03-13T13:50:16;25.27;;;4.43;;
51943;SDS011;37969;53.132;6.370;2023-03-13T13:52:43;19.98;;;4.55;;
51943;SDS011;37969;53.132;6.370;2023-03-13T13:55:28;24.90;;;5.18;;
51943;SDS011;37969;53.132;6.370;2023-03-13T13:57:58;19.92;;;3.85;;
51943;SDS011;37969;53.132;6.370;2023-03-13T14:00:25;27.58;;;6.07;;
51943;SDS011;37969;53.132;6.370;2023-03-13T14:02:52;28.15;;;4.90;;
51943;SDS011;37969;53.132;6.370;2023-03-13T14:05:22;27.63;;;4.15;;
51943;SDS011;37969;53.132;6.370;2023-03-13T14:10:20;26.80;;;4.78;;
51943;SDS011;37969;53.132;6.370;2023-03-13T14:12:53;18.15;;;3.70;;
51943;SDS011;37969;53.132;6.370;2023-03-13T14:15:21;21.87;;;4.23;;
51943;SDS011;37969;53.132;6.370;2023-03-13T14:17:49;23.13;;;4.47;;
51943;SDS011;37969;53.132;6.370;2023-03-13T14:22:50;17.60;;;4.20;;
51943;SDS011;37969;53.132;6.370;2023-03-13T14:25:18;17.35;;;4.00;;
51943;SDS011;37969;53.132;6.370;2023-03-13T14:27:45;28.13;;;5.40;;
51943;SDS011;37969;53.132;6.370;2023-03-13T14:30:14;20.98;;;4.63;;
51943;SDS011;37969;53.132;6.370;2023-03-13T14:32:41;20.00;;;3.58;;
51943;SDS011;37969;53.132;6.370;2023-03-13T14:35:08;27.15;;;5.03;;
51943;SDS011;37969;53.132;6.370;2023-03-13T14:37:36;22.52;;;4.78;;
51943;SDS011;37969;53.132;6.370;2023-03-13T14:40:06;23.25;;;5.45;;
51943;SDS011;37969;53.132;6.370;2023-03-13T14:42:39;23.50;;;4.65;;
51943;SDS011;37969;53.132;6.370;2023-03-13T14:45:12;27.63;;;5.97;;
51943;SDS011;37969;53.132;6.370;2023-03-13T14:47:38;26.50;;;5.05;;
51943;SDS011;37969;53.132;6.370;2023-03-13T14:50:10;27.48;;;5.25;;
51943;SDS011;37969;53.132;6.370;2023-03-13T14:52:39;16.40;;;3.85;;
51943;SDS011;37969;53.132;6.370;2023-03-13T14:57:56;19.02;;;4.22;;
51943;SDS011;37969;53.132;6.370;2023-03-13T15:00:27;20.63;;;4.65;;
51943;SDS011;37969;53.132;6.370;2023-03-13T15:03:11;30.65;;;5.20;;
51943;SDS011;37969;53.132;6.370;2023-03-13T15:05:37;29.67;;;5.35;;
51943;SDS011;37969;53.132;6.370;2023-03-13T15:08:09;30.33;;;5.50;;
51943;SDS011;37969;53.132;6.370;2023-03-13T15:10:37;35.50;;;5.60;;
51943;SDS011;37969;53.132;6.370;2023-03-13T15:15:41;26.33;;;5.78;;
51943;SDS011;37969;53.132;6.370;2023-03-13T15:18:11;29.02;;;6.43;;
51943;SDS011;37969;53.132;6.370;2023-03-13T15:20:41;34.50;;;6.15;;
51943;SDS011;37969;53.132;6.370;2023-03-13T15:23:09;25.33;;;5.57;;
51943;SDS011;37969;53.132;6.370;2023-03-13T15:25:35;31.50;;;5.45;;
51943;SDS011;37969;53.132;6.370;2023-03-13T15:28:04;25.33;;;5.10;;
51943;SDS011;37969;53.132;6.370;2023-03-13T15:30:31;27.90;;;5.45;;
51943;SDS011;37969;53.132;6.370;2023-03-13T15:32:57;38.50;;;6.18;;
51943;SDS011;37969;53.132;6.370;2023-03-13T15:35:26;27.08;;;5.72;;
51943;SDS011;37969;53.132;6.370;2023-03-13T15:37:53;30.98;;;7.10;;
51943;SDS011;37969;53.132;6.370;2023-03-13T15:40:19;24.48;;;5.35;;
51943;SDS011;37969;53.132;6.370;2023-03-13T15:42:45;26.42;;;5.63;;